createdAt,value
2023-02-27T00:01:31.421Z,97680.16
2023-02-27T00:04:02.008Z,97683.66
2023-02-27T00:06:32.272Z,97682.69
2023-02-27T00:09:02.608Z,97690.63
2023-02-27T00:11:33.070Z,97684.59
2023-02-27T00:14:02.957Z,97687.91
2023-02-27T00:16:35.164Z,97695.00
2023-02-27T00:19:06.134Z,97699.22
2023-02-27T00:21:37.348Z,97707.91
2023-02-27T00:24:09.536Z,97711.22
2023-02-27T00:26:39.867Z,97711.78
2023-02-27T00:29:10.117Z,97707.06
2023-02-27T00:31:41.937Z,97711.56
2023-02-27T00:34:12.483Z,97711.69
2023-02-27T00:36:42.155Z,97706.28
2023-02-27T00:39:12.371Z,97710.06
2023-02-27T00:41:42.982Z,97710.06
2023-02-27T00:44:13.428Z,97703.25
2023-02-27T00:46:46.181Z,97707.78
2023-02-27T00:49:16.455Z,97706.59
2023-02-27T00:51:47.494Z,97699.69
2023-02-27T00:54:18.071Z,97708.81
2023-02-27T00:56:48.529Z,97703.19
2023-02-27T00:59:18.869Z,97711.38
2023-02-27T01:01:51.525Z,97706.47
2023-02-27T01:04:21.554Z,97712.56
2023-02-27T01:06:51.816Z,97712.97
2023-02-27T01:09:22.173Z,97714.59
2023-02-27T01:11:52.629Z,97714.28
2023-02-27T01:14:22.630Z,97713.09
2023-02-27T01:16:53.993Z,97717.69
2023-02-27T01:19:24.581Z,97710.81
2023-02-27T01:21:54.804Z,97721.19
2023-02-27T01:24:25.404Z,97718.69
2023-02-27T01:26:55.200Z,97709.34
2023-02-27T01:29:25.646Z,97715.59
2023-02-27T01:31:57.930Z,97717.81
2023-02-27T01:34:28.674Z,97718.22
2023-02-27T01:36:58.413Z,97718.22
2023-02-27T01:39:29.654Z,97714.16
2023-02-27T01:42:00.330Z,97713.19
2023-02-27T01:44:32.205Z,97712.72
2023-02-27T01:47:03.976Z,97709.63
2023-02-27T01:49:35.623Z,97712.16
2023-02-27T01:52:10.175Z,97716.22
2023-02-27T01:54:42.546Z,97712.31
2023-02-27T01:57:13.650Z,97719.09
2023-02-27T01:59:44.677Z,97720.19
2023-02-27T02:02:22.196Z,97723.13
2023-02-27T02:04:53.128Z,97725.81
2023-02-27T02:07:25.833Z,97729.75
2023-02-27T02:09:59.385Z,97725.66
2023-02-27T02:12:33.341Z,97732.22
2023-02-27T02:15:08.004Z,97734.00
2023-02-27T02:17:44.684Z,97732.16
2023-02-27T02:20:50.270Z,97734.94
2023-02-27T02:24:14.034Z,97731.41
2023-02-27T02:26:58.131Z,97742.69
2023-02-27T02:29:54.259Z,97741.66
2023-02-27T02:33:00.797Z,97743.84
2023-02-27T02:36:12.241Z,97746.50
2023-02-27T02:39:18.622Z,97748.81
2023-02-27T02:42:01.577Z,97746.59
2023-02-27T02:44:39.532Z,97749.72
2023-02-27T02:47:20.955Z,97746.13
2023-02-27T02:49:58.182Z,97747.72
2023-02-27T02:52:35.235Z,97748.56
2023-02-27T02:55:12.048Z,97755.63
2023-02-27T02:57:45.176Z,97763.31
2023-02-27T03:00:19.391Z,97759.66
2023-02-27T03:02:53.133Z,97763.81
2023-02-27T03:05:28.000Z,97759.16
2023-02-27T03:08:02.445Z,97765.56
2023-02-27T03:10:38.689Z,97773.66
2023-02-27T03:13:14.131Z,97776.84
2023-02-27T03:15:49.704Z,97772.69
2023-02-27T03:18:21.577Z,97770.81
2023-02-27T03:20:55.240Z,97782.69
2023-02-27T03:23:30.033Z,97783.19
2023-02-27T03:26:02.808Z,97780.84
2023-02-27T03:28:36.140Z,97782.06
2023-02-27T03:31:11.011Z,97786.13
2023-02-27T03:33:44.481Z,97781.41
2023-02-27T03:36:19.850Z,97783.25
2023-02-27T03:38:56.831Z,97785.47
2023-02-27T03:41:32.634Z,97793.63
2023-02-27T03:44:07.874Z,97789.44
2023-02-27T03:46:39.791Z,97784.53
2023-02-27T03:49:10.926Z,97789.75
2023-02-27T03:51:41.461Z,97789.53
2023-02-27T03:54:15.571Z,97787.97
2023-02-27T03:56:52.041Z,97795.63
2023-02-27T03:59:22.922Z,97792.19
2023-02-27T04:01:54.487Z,97797.28
2023-02-27T04:04:25.794Z,97807.78
2023-02-27T04:07:17.656Z,97802.56
2023-02-27T04:10:14.878Z,97805.06
2023-02-27T04:13:13.159Z,97810.94
2023-02-27T04:15:55.438Z,97814.69
2023-02-27T04:18:37.045Z,97824.72
2023-02-27T04:21:10.598Z,97818.00
2023-02-27T04:23:43.952Z,97823.00
2023-02-27T04:26:22.039Z,97823.28
2023-02-27T04:29:01.931Z,97823.53
2023-02-27T04:31:34.876Z,97823.66
2023-02-27T04:34:09.409Z,97836.31
2023-02-27T04:36:45.249Z,97835.56
2023-02-27T04:39:21.615Z,97839.19
2023-02-27T04:41:54.090Z,97833.75
2023-02-27T04:44:27.432Z,97827.97
2023-02-27T04:46:59.018Z,97832.44
2023-02-27T04:49:31.532Z,97833.50
2023-02-27T04:52:04.418Z,97837.81
2023-02-27T04:54:37.707Z,97833.75
2023-02-27T04:57:11.840Z,97832.56
2023-02-27T04:59:46.653Z,97830.31
2023-02-27T05:02:20.201Z,97838.25
2023-02-27T05:04:51.012Z,97833.69
2023-02-27T05:07:24.641Z,97842.13
2023-02-27T05:09:58.386Z,97845.19
2023-02-27T05:12:34.375Z,97849.19
2023-02-27T05:15:09.407Z,97846.44
2023-02-27T05:17:43.636Z,97853.28
2023-02-27T05:20:15.350Z,97851.47
2023-02-27T05:22:49.860Z,97855.38
2023-02-27T05:25:29.333Z,97858.13
2023-02-27T05:28:04.100Z,97862.56
2023-02-27T05:30:41.270Z,97867.56
2023-02-27T05:33:14.920Z,97860.25
2023-02-27T05:35:50.020Z,97873.84
2023-02-27T05:38:22.684Z,97866.13
2023-02-27T05:40:56.944Z,97869.19
2023-02-27T05:43:29.835Z,97864.88
2023-02-27T05:46:06.772Z,97870.59
2023-02-27T05:48:40.510Z,97879.00
2023-02-27T05:51:12.723Z,97875.44
2023-02-27T05:53:45.275Z,97883.81
2023-02-27T05:56:18.182Z,97884.56
2023-02-27T05:58:51.858Z,97888.63
2023-02-27T06:01:24.013Z,97894.66
2023-02-27T06:03:55.070Z,97906.50
2023-02-27T06:06:27.022Z,97915.09
2023-02-27T06:08:57.857Z,97917.19
2023-02-27T06:11:29.194Z,97919.66
2023-02-27T06:14:00.153Z,97920.69
2023-02-27T06:16:31.889Z,97925.22
2023-02-27T06:19:04.972Z,97934.09
2023-02-27T06:21:35.508Z,97934.59
2023-02-27T06:24:05.991Z,97934.22
2023-02-27T06:26:36.608Z,97936.97
2023-02-27T06:29:06.476Z,97939.09
2023-02-27T06:31:39.022Z,97942.00
2023-02-27T06:34:08.872Z,97945.78
2023-02-27T06:36:38.956Z,97946.72
2023-02-27T06:39:09.491Z,97949.56
2023-02-27T06:41:39.793Z,97950.94
2023-02-27T06:44:09.729Z,97957.44
2023-02-27T06:46:41.878Z,97961.09
2023-02-27T06:49:12.041Z,97965.22
2023-02-27T06:51:44.168Z,97972.22
2023-02-27T06:54:15.722Z,97965.22
2023-02-27T06:56:46.313Z,97965.38
2023-02-27T06:59:16.249Z,97963.59
2023-02-27T07:01:48.900Z,97972.09
2023-02-27T07:04:19.431Z,97968.16
2023-02-27T07:07:35.072Z,97970.25
2023-02-27T07:09:40.736Z,97965.84
2023-02-27T07:12:11.037Z,97969.22
2023-02-27T07:14:41.101Z,97968.44
2023-02-27T07:17:13.600Z,97969.97
2023-02-27T07:19:43.674Z,97965.91
2023-02-27T07:22:14.944Z,97972.38
2023-02-27T07:24:46.045Z,97970.88
2023-02-27T07:27:16.435Z,97974.66
2023-02-27T07:29:49.361Z,97979.75
2023-02-27T07:32:25.444Z,97973.22
2023-02-27T07:34:56.030Z,97970.13
2023-02-27T07:37:28.129Z,97964.69
2023-02-27T07:39:58.155Z,97969.59
2023-02-27T07:42:28.732Z,97961.66
2023-02-27T07:44:58.962Z,97968.97
2023-02-27T07:47:32.104Z,97963.66
2023-02-27T07:50:03.782Z,97966.84
2023-02-27T07:52:36.302Z,97976.09
2023-02-27T07:55:06.139Z,97972.91
2023-02-27T07:57:36.896Z,97972.28
2023-02-27T08:00:09.887Z,97969.09
2023-02-27T08:02:43.089Z,97979.53
2023-02-27T08:05:13.129Z,97971.34
2023-02-27T08:07:43.931Z,97967.44
2023-02-27T08:10:16.934Z,97964.78
2023-02-27T08:12:47.914Z,97963.47
2023-02-27T08:15:17.797Z,97961.91
2023-02-27T08:17:50.561Z,97970.19
2023-02-27T08:20:23.111Z,97973.50
2023-02-27T08:22:53.182Z,97973.56
2023-02-27T08:25:23.722Z,97974.78
2023-02-27T08:27:54.567Z,97979.53
2023-02-27T08:30:24.736Z,97968.47
2023-02-27T08:32:57.350Z,97975.84
2023-02-27T08:35:27.481Z,97976.59
2023-02-27T08:37:57.476Z,97975.13
2023-02-27T08:40:28.066Z,97976.75
2023-02-27T08:42:58.946Z,97989.22
2023-02-27T08:45:29.286Z,97988.09
2023-02-27T08:48:02.257Z,97989.22
2023-02-27T08:50:32.669Z,97995.00
2023-02-27T08:53:03.187Z,97985.50
2023-02-27T08:55:34.901Z,97987.31
2023-02-27T08:58:05.419Z,97995.81
2023-02-27T09:00:35.592Z,97992.13
2023-02-27T09:03:08.016Z,97993.09
2023-02-27T09:05:40.871Z,97997.84
2023-02-27T09:08:11.120Z,97994.59
2023-02-27T09:10:42.194Z,98000.69
2023-02-27T09:13:13.031Z,97995.72
2023-02-27T09:15:44.384Z,97999.59
2023-02-27T09:18:17.236Z,97992.09
2023-02-27T09:20:47.501Z,97995.22
2023-02-27T09:23:17.569Z,97993.31
2023-02-27T09:25:47.770Z,97999.31
2023-02-27T09:28:18.506Z,98002.44
2023-02-27T09:30:48.266Z,98009.25
2023-02-27T09:33:20.130Z,98011.41
2023-02-27T09:35:51.246Z,98005.19
2023-02-27T09:38:21.793Z,97996.97
2023-02-27T09:40:53.696Z,98001.63
2023-02-27T09:43:36.787Z,97998.09
2023-02-27T09:46:08.184Z,97998.22
2023-02-27T09:48:45.849Z,97993.91
2023-02-27T09:51:17.833Z,97990.81
2023-02-27T09:53:49.546Z,98000.34
2023-02-27T09:56:24.351Z,97996.09
2023-02-27T09:58:59.360Z,97992.34
2023-02-27T10:01:32.830Z,97989.59
2023-02-27T10:04:28.753Z,97990.38
2023-02-27T10:07:04.598Z,97989.31
2023-02-27T10:09:41.362Z,97986.47
2023-02-27T10:12:26.982Z,97985.38
2023-02-27T10:15:03.608Z,97991.56
2023-02-27T10:17:36.985Z,97990.28
2023-02-27T10:20:12.870Z,97988.50
2023-02-27T10:22:46.340Z,97997.72
2023-02-27T10:25:30.654Z,97998.59
2023-02-27T10:28:15.433Z,97994.91
2023-02-27T10:30:49.174Z,97997.25
2023-02-27T10:33:28.238Z,98001.88
2023-02-27T10:36:03.112Z,98005.59
2023-02-27T10:38:38.752Z,98006.63
2023-02-27T10:41:13.222Z,98005.31
2023-02-27T10:43:44.285Z,98006.81
2023-02-27T10:46:17.643Z,98008.19
2023-02-27T10:48:48.616Z,98004.66
2023-02-27T10:51:28.961Z,98007.44
2023-02-27T10:54:18.920Z,98008.34
2023-02-27T10:56:52.852Z,98008.47
2023-02-27T10:59:25.416Z,98001.25
2023-02-27T11:01:58.505Z,97997.78
2023-02-27T11:04:33.365Z,97996.19
2023-02-27T11:07:09.661Z,97998.66
2023-02-27T11:09:40.581Z,97998.28
2023-02-27T11:12:21.847Z,97986.72
2023-02-27T11:14:54.095Z,97988.19
2023-02-27T11:17:27.714Z,97984.31
2023-02-27T11:19:59.757Z,97987.78
2023-02-27T11:22:34.861Z,97977.75
2023-02-27T11:25:23.124Z,97972.91
2023-02-27T11:27:53.728Z,97980.78
2023-02-27T11:30:29.048Z,97980.81
2023-02-27T11:33:02.311Z,97972.13
2023-02-27T11:35:35.143Z,97973.88
2023-02-27T11:38:08.166Z,97970.16
2023-02-27T11:40:41.389Z,97969.47
2023-02-27T11:43:20.251Z,97970.44
2023-02-27T11:46:04.221Z,97968.53
2023-02-27T11:48:44.119Z,97960.09
2023-02-27T11:51:24.995Z,97960.94
2023-02-27T11:54:10.074Z,97964.31
2023-02-27T11:56:42.635Z,97962.84
2023-02-27T11:59:27.793Z,97956.78
2023-02-27T12:02:03.991Z,97951.78
2023-02-27T12:04:47.876Z,97951.94
2023-02-27T12:07:21.755Z,97957.81
2023-02-27T12:10:01.747Z,97958.66
2023-02-27T12:12:37.755Z,97960.63
2023-02-27T12:15:26.045Z,97966.66
2023-02-27T12:18:04.527Z,97968.72
2023-02-27T12:20:38.840Z,97971.06
2023-02-27T12:23:18.984Z,97971.44
2023-02-27T12:25:53.679Z,97973.00
2023-02-27T12:28:41.975Z,97973.91
2023-02-27T12:31:33.141Z,97974.91
2023-02-27T12:34:06.912Z,97971.94
2023-02-27T12:36:37.736Z,97974.88
2023-02-27T12:39:07.904Z,97978.25
2023-02-27T12:41:47.787Z,97984.31
2023-02-27T12:44:37.610Z,97975.34
2023-02-27T12:47:19.563Z,97979.88
2023-02-27T12:49:56.746Z,97975.34
2023-02-27T12:52:36.312Z,97974.41
2023-02-27T12:55:12.861Z,97981.25
2023-02-27T12:57:57.512Z,97980.59
2023-02-27T13:00:31.403Z,97976.97
2023-02-27T13:03:06.542Z,97987.00
2023-02-27T13:05:44.762Z,97977.88
2023-02-27T13:08:23.356Z,97993.81
2023-02-27T13:11:00.111Z,97991.41
2023-02-27T13:13:40.123Z,97977.78
2023-02-27T13:16:16.252Z,97982.53
2023-02-27T13:18:50.302Z,97985.28
2023-02-27T13:21:27.836Z,97989.41
2023-02-27T13:24:05.257Z,97983.81
2023-02-27T13:26:38.202Z,97984.16
2023-02-27T13:29:12.518Z,97973.81
2023-02-27T13:31:52.211Z,97981.03
2023-02-27T13:34:27.718Z,97979.59
2023-02-27T13:37:01.926Z,97984.88
2023-02-27T13:40:02.058Z,97980.75
2023-02-27T13:43:02.494Z,97975.38
2023-02-27T13:45:59.368Z,97970.22
2023-02-27T13:48:49.521Z,97971.72
2023-02-27T13:51:43.444Z,97973.63
2023-02-27T13:54:26.066Z,97976.91
2023-02-27T13:57:26.481Z,97971.97
2023-02-27T14:00:09.252Z,97965.00
2023-02-27T14:03:00.811Z,97976.19
2023-02-27T14:05:35.168Z,97982.94
2023-02-27T14:08:12.522Z,97983.94
2023-02-27T14:10:52.626Z,97983.81
2023-02-27T14:14:00.431Z,97988.44
2023-02-27T14:16:56.356Z,97985.38
2023-02-27T14:19:57.169Z,97989.81
2023-02-27T14:22:42.532Z,97981.16
2023-02-27T14:25:27.322Z,97989.81
2023-02-27T14:28:00.782Z,97986.22
2023-02-27T14:30:34.132Z,97986.00
2023-02-27T14:33:40.118Z,97991.94
2023-02-27T14:36:19.390Z,97988.56
2023-02-27T14:38:51.088Z,97989.53
2023-02-27T14:41:31.943Z,97985.31
2023-02-27T14:44:02.848Z,97985.56
2023-02-27T14:46:36.598Z,97984.44
2023-02-27T14:49:18.479Z,97993.38
2023-02-27T14:51:52.339Z,97988.69
2023-02-27T14:54:24.578Z,98002.25
2023-02-27T14:56:59.851Z,97995.97
2023-02-27T14:59:34.569Z,98007.28
2023-02-27T15:02:11.209Z,98002.97
2023-02-27T15:04:41.550Z,98007.81
2023-02-27T15:07:24.875Z,98012.94
2023-02-27T15:09:56.885Z,98003.28
2023-02-27T15:12:28.334Z,98014.66
2023-02-27T15:15:01.728Z,98021.19
2023-02-27T15:17:40.607Z,98021.44
2023-02-27T15:20:27.878Z,98026.38
2023-02-27T15:23:01.992Z,98031.84
2023-02-27T15:25:35.018Z,98039.78
2023-02-27T15:28:07.397Z,98035.75
2023-02-27T15:30:37.371Z,98040.84
2023-02-27T15:33:16.122Z,98031.63
2023-02-27T15:35:47.556Z,98047.47
2023-02-27T15:38:35.374Z,98049.72
2023-02-27T15:41:06.703Z,98051.19
2023-02-27T15:43:37.335Z,98055.81
2023-02-27T15:46:07.761Z,98058.13
2023-02-27T15:48:38.298Z,98064.50
2023-02-27T15:51:12.004Z,98067.03
2023-02-27T15:53:51.219Z,98061.44
2023-02-27T15:56:26.311Z,98065.75
2023-02-27T15:59:00.188Z,98067.84
2023-02-27T16:01:32.992Z,98077.56
2023-02-27T16:04:05.783Z,98075.88
2023-02-27T16:06:39.606Z,98091.38
2023-02-27T16:09:23.698Z,98088.97
2023-02-27T16:12:22.017Z,98102.63
2023-02-27T16:14:54.441Z,98102.31
2023-02-27T16:17:30.854Z,98103.13
2023-02-27T16:20:05.483Z,98102.59
2023-02-27T16:22:36.508Z,98107.38
2023-02-27T16:25:22.276Z,98111.88
2023-02-27T16:27:53.796Z,98121.09
2023-02-27T16:30:25.817Z,98123.78
2023-02-27T16:33:03.016Z,98126.81
2023-02-27T16:35:34.375Z,98143.34
2023-02-27T16:38:05.396Z,98140.19
2023-02-27T16:40:38.081Z,98140.38
2023-02-27T16:43:09.230Z,98150.09
2023-02-27T16:45:39.654Z,98146.66
2023-02-27T16:48:10.321Z,98143.97
2023-02-27T16:50:43.505Z,98157.69
2023-02-27T16:53:14.315Z,98167.75
2023-02-27T16:55:45.671Z,98162.03
2023-02-27T16:58:17.983Z,98174.00
2023-02-27T17:00:49.237Z,98176.81
2023-02-27T17:03:19.541Z,98176.72
2023-02-27T17:05:50.634Z,98182.88
2023-02-27T17:08:23.288Z,98177.59
2023-02-27T17:10:54.896Z,98191.25
2023-02-27T17:13:25.345Z,98190.41
2023-02-27T17:15:55.611Z,98202.09
2023-02-27T17:18:26.492Z,98202.53
2023-02-27T17:20:57.482Z,98210.06
2023-02-27T17:23:28.079Z,98214.78
2023-02-27T17:26:01.027Z,98221.25
2023-02-27T17:28:31.557Z,98221.50
2023-02-27T17:31:03.533Z,98221.09
2023-02-27T17:33:33.952Z,98236.28
2023-02-27T17:36:04.947Z,98234.97
2023-02-27T17:38:37.045Z,98243.03
2023-02-27T17:41:11.933Z,98241.84
2023-02-27T17:43:43.286Z,98244.09
2023-02-27T17:46:14.904Z,98259.13
2023-02-27T17:48:45.372Z,98259.53
2023-02-27T17:51:17.458Z,98258.59
2023-02-27T17:53:47.283Z,98256.81
2023-02-27T17:56:20.269Z,98258.81
2023-02-27T17:58:50.234Z,98267.69
2023-02-27T18:01:26.350Z,98277.31
2023-02-27T18:03:57.669Z,98280.31
2023-02-27T18:06:29.004Z,98269.69
2023-02-27T18:09:00.203Z,98273.69
2023-02-27T18:11:33.626Z,98270.03
2023-02-27T18:14:04.655Z,98269.50
2023-02-27T18:16:35.736Z,98270.00
2023-02-27T18:19:07.844Z,98271.59
2023-02-27T18:21:39.126Z,98270.69
2023-02-27T18:24:10.769Z,98279.38
2023-02-27T18:26:43.470Z,98282.72
2023-02-27T18:29:16.871Z,98287.28
2023-02-27T18:31:50.644Z,98292.84
2023-02-27T18:34:21.632Z,98292.59
2023-02-27T18:36:52.061Z,98284.88
2023-02-27T18:39:23.855Z,98293.00
2023-02-27T18:41:55.891Z,98291.09
2023-02-27T18:44:26.563Z,98292.22
2023-02-27T18:46:56.689Z,98293.97
2023-02-27T18:49:27.449Z,98291.41
2023-02-27T18:51:57.696Z,98292.59
2023-02-27T18:54:30.181Z,98300.75
2023-02-27T18:57:02.741Z,98295.44
2023-02-27T18:59:33.926Z,98297.69
2023-02-27T19:02:07.442Z,98300.72
2023-02-27T19:04:37.483Z,98303.34
2023-02-27T19:07:07.222Z,98309.66
2023-02-27T19:09:38.317Z,98305.13
2023-02-27T19:12:11.734Z,98309.97
2023-02-27T19:14:42.793Z,98314.44
2023-02-27T19:17:12.972Z,98316.59
2023-02-27T19:19:43.918Z,98312.16
2023-02-27T19:22:14.637Z,98317.97
2023-02-27T19:24:45.989Z,98319.03
2023-02-27T19:27:19.362Z,98318.13
2023-02-27T19:29:50.964Z,98321.84
2023-02-27T19:32:22.352Z,98334.53
2023-02-27T19:34:52.907Z,98329.53
2023-02-27T19:37:24.802Z,98341.06
2023-02-27T19:39:55.602Z,98337.13
2023-02-27T19:42:27.836Z,98337.75
2023-02-27T19:44:58.235Z,98338.25
2023-02-27T19:47:28.228Z,98347.53
2023-02-27T19:49:58.711Z,98341.16
2023-02-27T19:52:29.362Z,98342.00
2023-02-27T19:54:59.739Z,98340.69
2023-02-27T19:57:31.236Z,98341.56
2023-02-27T20:00:02.893Z,98346.56
2023-02-27T20:02:34.397Z,98340.31
2023-02-27T20:05:05.100Z,98344.25
2023-02-27T20:07:38.039Z,98341.94
2023-02-27T20:10:09.431Z,98352.06
2023-02-27T20:12:41.674Z,98342.19
2023-02-27T20:15:13.460Z,98351.63
2023-02-27T20:17:44.728Z,98352.09
2023-02-27T20:20:17.260Z,98353.13
2023-02-27T20:22:51.022Z,98354.50
2023-02-27T20:25:23.058Z,98352.38
2023-02-27T20:27:55.497Z,98344.41
2023-02-27T20:30:26.941Z,98354.41
2023-02-27T20:32:58.846Z,98355.06
2023-02-27T20:35:29.514Z,98360.63
2023-02-27T20:38:00.521Z,98361.25
2023-02-27T20:40:31.162Z,98364.69
2023-02-27T20:43:04.723Z,98365.94
2023-02-27T20:45:39.548Z,98368.94
2023-02-27T20:48:11.113Z,98367.66
2023-02-27T20:50:41.926Z,98368.59
2023-02-27T20:53:12.193Z,98368.38
2023-02-27T20:55:49.092Z,98367.78
2023-02-27T20:58:20.625Z,98373.22
2023-02-27T21:00:51.215Z,98374.81
2023-02-27T21:03:22.245Z,98372.28
2023-02-27T21:05:53.785Z,98371.03
2023-02-27T21:08:24.808Z,98374.22
2023-02-27T21:10:56.105Z,98374.66
2023-02-27T21:13:28.477Z,98374.97
2023-02-27T21:16:02.173Z,98377.84
2023-02-27T21:18:33.447Z,98377.56
2023-02-27T21:21:05.892Z,98377.28
2023-02-27T21:23:42.255Z,98373.59
2023-02-27T21:26:14.123Z,98381.22
2023-02-27T21:28:48.038Z,98377.63
2023-02-27T21:31:19.972Z,98372.06
2023-02-27T21:33:49.901Z,98376.94
2023-02-27T21:36:20.601Z,98375.44
2023-02-27T21:38:53.031Z,98374.47
2023-02-27T21:41:25.139Z,98374.97
2023-02-27T21:44:01.136Z,98377.59
2023-02-27T21:46:32.422Z,98378.97
2023-02-27T21:49:04.651Z,98378.72
2023-02-27T21:51:40.888Z,98380.50
2023-02-27T21:54:14.025Z,98384.94
2023-02-27T21:56:45.552Z,98378.00
2023-02-27T21:59:18.027Z,98377.19
2023-02-27T22:01:49.083Z,98379.84
2023-02-27T22:04:20.076Z,98375.84
2023-02-27T22:06:52.877Z,98376.03
2023-02-27T22:09:23.595Z,98374.25
2023-02-27T22:11:53.985Z,98381.97
2023-02-27T22:14:26.610Z,98383.78
2023-02-27T22:16:56.902Z,98382.53
2023-02-27T22:19:28.000Z,98382.78
2023-02-27T22:21:57.881Z,98382.88
2023-02-27T22:24:28.471Z,98379.53
2023-02-27T22:26:59.355Z,98380.34
2023-02-27T22:29:32.060Z,98380.34
2023-02-27T22:32:02.569Z,98379.19
2023-02-27T22:34:33.162Z,98383.81
2023-02-27T22:37:03.647Z,98384.03
2023-02-27T22:39:33.633Z,98381.16
2023-02-27T22:42:04.034Z,98381.94
2023-02-27T22:44:35.896Z,98381.00
2023-02-27T22:47:06.762Z,98378.56
2023-02-27T22:49:39.361Z,98372.41
2023-02-27T22:52:09.637Z,98381.72
2023-02-27T22:54:39.642Z,98389.31
2023-02-27T22:57:09.722Z,98389.75
2023-02-27T22:59:41.613Z,98386.66
2023-02-27T23:02:12.240Z,98389.97
2023-02-27T23:04:43.413Z,98390.81
2023-02-27T23:07:13.521Z,98394.28
2023-02-27T23:09:44.859Z,98392.41
2023-02-27T23:12:14.893Z,98404.06
2023-02-27T23:14:45.946Z,98398.38
2023-02-27T23:17:16.224Z,98397.97
2023-02-27T23:19:46.211Z,98404.41
2023-02-27T23:22:16.776Z,98407.31
2023-02-27T23:24:47.263Z,98404.63
2023-02-27T23:27:25.763Z,98404.16
2023-02-27T23:29:58.775Z,98400.19
2023-02-27T23:32:29.078Z,98409.59
2023-02-27T23:34:59.173Z,98412.44
2023-02-27T23:37:29.394Z,98419.09
2023-02-27T23:39:59.907Z,98412.88
2023-02-27T23:42:49.644Z,98416.81
2023-02-27T23:45:24.407Z,98412.56
2023-02-27T23:47:56.389Z,98412.91
2023-02-27T23:50:28.466Z,98413.59
2023-02-27T23:53:00.810Z,98409.41
2023-02-27T23:55:34.174Z,98410.56
2023-02-27T23:58:06.238Z,98412.91
